Time;durP1;ratioP1;P1;durP2;ratioP2;P2;SDS_P1;SDS_P2;PMS_P1;PMS_P2;Temp;Humidity;BMP_temperature;BMP_pressure;BME280_temperature;BME280_humidity;BME280_pressure;Samples;Min_cycle;Max_cycle;Signal;HPM_P1;HPM_P2
2021/09/15 00:00:08;;;;;;;7.13;6.43;;;19.20;99.90;;;;;;4875601;29;20285;-71
2021/09/15 00:02:38;;;;;;;9.83;7.07;;;19.10;99.90;;;;;;4875799;29;20286;-71
2021/09/15 00:05:07;;;;;;;7.97;6.67;;;19.10;99.90;;;;;;4876126;29;20746;-71
2021/09/15 00:07:36;;;;;;;9.23;6.97;;;19.10;99.90;;;;;;4843636;29;20259;-71
2021/09/15 00:10:05;;;;;;;9.73;7.40;;;19.10;99.90;;;;;;4876601;29;20607;-71
2021/09/15 00:12:34;;;;;;;9.10;7.70;;;19.10;99.90;;;;;;4874785;29;20602;-71
2021/09/15 00:15:04;;;;;;;8.17;7.37;;;19.20;99.90;;;;;;4871297;29;20201;-71
2021/09/15 00:17:33;;;;;;;8.20;6.97;;;19.10;99.90;;;;;;4879334;29;20202;-71
2021/09/15 00:20:03;;;;;;;11.13;7.00;;;19.10;99.90;;;;;;4873233;29;20195;-71
2021/09/15 00:22:32;;;;;;;10.27;6.97;;;19.00;99.90;;;;;;4877781;29;20195;-71
2021/09/15 00:25:00;;;;;;;9.53;7.43;;;19.00;99.90;;;;;;4875817;29;20247;-72
2021/09/15 00:27:29;;;;;;;9.20;8.30;;;19.00;99.90;;;;;;4874147;29;20734;-72
2021/09/15 00:29:57;;;;;;;8.60;7.70;;;19.00;99.90;;;;;;4885542;29;20674;-72
2021/09/15 00:32:26;;;;;;;8.13;7.00;;;19.00;99.90;;;;;;4838688;29;20223;-72
2021/09/15 00:34:55;;;;;;;9.43;6.80;;;18.90;99.90;;;;;;4853450;29;20202;-71
2021/09/15 00:37:24;;;;;;;9.93;8.23;;;18.90;99.90;;;;;;4875025;29;20243;-72
2021/09/15 00:39:53;;;;;;;10.73;8.80;;;18.90;99.90;;;;;;4872303;29;20234;-71
2021/09/15 00:42:21;;;;;;;12.13;7.70;;;19.00;99.90;;;;;;4874207;29;20337;-71
2021/09/15 00:44:49;;;;;;;9.17;7.70;;;19.00;99.90;;;;;;4874713;29;20223;-72
2021/09/15 00:47:18;;;;;;;8.43;7.53;;;19.00;99.90;;;;;;4879297;29;20619;-71
2021/09/15 00:49:46;;;;;;;9.77;7.97;;;19.00;99.90;;;;;;4881088;29;20326;-72
2021/09/15 00:52:15;;;;;;;10.27;7.93;;;19.00;99.90;;;;;;4859509;29;20309;-72
2021/09/15 00:54:45;;;;;;;12.13;8.10;;;18.90;99.90;;;;;;4877810;29;20238;-72
2021/09/15 00:57:13;;;;;;;11.03;8.90;;;18.90;99.90;;;;;;4866443;29;20237;-71
2021/09/15 00:59:41;;;;;;;14.13;9.07;;;18.90;99.90;;;;;;4874957;29;20674;-72
2021/09/15 01:02:10;;;;;;;14.93;9.33;;;19.10;99.90;;;;;;4870134;29;20226;-72
2021/09/15 01:04:39;;;;;;;8.73;7.83;;;19.10;99.90;;;;;;4875120;29;20234;-71
2021/09/15 01:07:07;;;;;;;12.93;9.33;;;19.10;99.90;;;;;;4885442;29;20278;-72
2021/09/15 01:09:36;;;;;;;11.23;9.30;;;19.10;99.90;;;;;;4873476;29;20717;-71
2021/09/15 01:12:09;;;;;;;12.30;9.00;;;19.00;99.90;;;;;;4872983;29;20254;-72
2021/09/15 01:14:39;;;;;;;11.63;9.67;;;19.00;99.90;;;;;;4871289;29;20206;-72
2021/09/15 01:17:09;;;;;;;12.73;9.70;;;19.00;99.90;;;;;;4872833;29;20206;-72
2021/09/15 01:19:37;;;;;;;13.07;10.00;;;19.00;99.90;;;;;;4871573;29;20698;-71
2021/09/15 01:22:07;;;;;;;12.07;10.23;;;19.00;99.90;;;;;;4872341;29;20613;-72
2021/09/15 01:24:35;;;;;;;13.03;10.30;;;19.00;99.90;;;;;;4857390;29;20306;-72
2021/09/15 01:27:04;;;;;;;17.13;11.07;;;19.00;99.90;;;;;;4860561;29;20286;-71
2021/09/15 01:29:34;;;;;;;12.03;10.63;;;19.10;99.90;;;;;;4877820;29;20199;-72
2021/09/15 01:32:04;;;;;;;12.47;10.50;;;19.10;99.90;;;;;;4844326;29;20296;-72
2021/09/15 01:34:35;;;;;;;15.83;10.00;;;19.20;99.90;;;;;;4881121;29;20321;-72
2021/09/15 01:37:04;;;;;;;10.73;9.63;;;19.10;99.90;;;;;;4877984;29;20263;-71
2021/09/15 01:39:34;;;;;;;13.60;11.00;;;19.10;99.90;;;;;;4874727;29;20746;-71
2021/09/15 01:42:06;;;;;;;13.23;11.03;;;19.10;99.90;;;;;;4876967;29;20650;-71
2021/09/15 01:44:36;;;;;;;15.70;11.57;;;19.20;99.90;;;;;;4874043;29;20284;-71
2021/09/15 01:47:06;;;;;;;13.30;11.20;;;19.20;99.90;;;;;;4868224;29;20203;-71
2021/09/15 01:49:37;;;;;;;16.53;11.77;;;19.20;99.90;;;;;;4854109;29;20290;-72
2021/09/15 01:52:08;;;;;;;16.63;11.57;;;19.20;99.90;;;;;;4876733;29;20211;-72
2021/09/15 01:54:38;;;;;;;14.87;11.90;;;19.20;99.90;;;;;;4876216;29;20203;-71
2021/09/15 01:57:07;;;;;;;14.10;11.40;;;19.30;99.90;;;;;;4884140;29;20574;-71
2021/09/15 01:59:35;;;;;;;11.43;10.20;;;19.20;99.90;;;;;;4880362;29;20226;-71
2021/09/15 02:02:04;;;;;;;14.33;11.20;;;19.10;99.90;;;;;;4872641;29;20191;-72
2021/09/15 02:04:32;;;;;;;17.67;11.33;;;19.10;99.90;;;;;;4858354;29;20229;-72
2021/09/15 02:07:00;;;;;;;14.43;11.63;;;19.10;99.90;;;;;;4870431;29;20207;-71
2021/09/15 02:09:29;;;;;;;18.07;12.23;;;19.10;99.90;;;;;;4877018;29;20607;-71
2021/09/15 02:11:59;;;;;;;14.60;10.93;;;19.10;99.90;;;;;;4878310;29;20773;-71
2021/09/15 02:14:27;;;;;;;12.77;11.27;;;19.10;99.90;;;;;;4861754;29;20206;-72
2021/09/15 02:16:55;;;;;;;11.40;10.07;;;19.00;99.90;;;;;;4874898;29;20202;-71
2021/09/15 02:19:24;;;;;;;15.33;11.20;;;19.00;99.90;;;;;;4875313;29;20492;-71
2021/09/15 02:21:52;;;;;;;13.20;10.80;;;18.90;99.90;;;;;;4876081;29;20223;-71
2021/09/15 02:24:21;;;;;;;14.63;10.83;;;18.90;99.90;;;;;;4874010;29;20254;-71
2021/09/15 02:26:50;;;;;;;17.17;10.97;;;18.80;99.90;;;;;;4877565;29;20623;-71
2021/09/15 02:29:20;;;;;;;18.30;13.23;;;18.80;99.90;;;;;;4874421;29;20202;-71
2021/09/15 02:31:48;;;;;;;16.27;13.70;;;18.80;99.90;;;;;;4880441;29;20218;-72
2021/09/15 02:34:17;;;;;;;21.87;13.43;;;18.90;99.90;;;;;;4877086;29;20205;-71
2021/09/15 02:36:45;;;;;;;16.27;12.47;;;18.90;99.90;;;;;;4878661;29;20305;-71
2021/09/15 02:39:13;;;;;;;15.63;12.50;;;19.00;99.90;;;;;;4864307;29;20241;-72
2021/09/15 02:41:42;;;;;;;17.77;11.90;;;18.90;99.90;;;;;;4873947;29;20242;-71
2021/09/15 02:44:10;;;;;;;17.33;11.67;;;18.90;99.90;;;;;;4859055;29;20198;-72
2021/09/15 02:46:40;;;;;;;14.63;11.10;;;18.80;99.90;;;;;;4881949;29;20210;-72
2021/09/15 02:49:08;;;;;;;17.93;12.13;;;18.80;99.90;;;;;;4859661;29;20211;-72
2021/09/15 02:51:36;;;;;;;16.90;11.77;;;18.80;99.90;;;;;;4873320;29;20229;-72
2021/09/15 02:54:05;;;;;;;14.80;12.63;;;18.80;99.90;;;;;;4875944;29;20599;-72
2021/09/15 02:56:33;;;;;;;17.00;12.23;;;18.80;99.90;;;;;;4882482;29;20293;-72
2021/09/15 02:59:01;;;;;;;19.67;14.13;;;18.80;99.90;;;;;;4879016;29;20814;-72
2021/09/15 03:01:31;;;;;;;22.73;16.33;;;18.80;99.90;;;;;;4875608;29;20294;-72
2021/09/15 03:04:01;;;;;;;25.50;16.40;;;19.00;99.90;;;;;;4858525;29;20659;-72
2021/09/15 03:06:29;;;;;;;21.00;15.43;;;18.90;99.90;;;;;;4878715;29;20430;-72
2021/09/15 03:08:58;;;;;;;22.63;15.23;;;19.00;99.90;;;;;;4882862;29;20238;-72
2021/09/15 03:11:27;;;;;;;23.07;15.07;;;19.00;99.90;;;;;;4857086;29;20592;-72
2021/09/15 03:13:55;;;;;;;23.37;14.83;;;19.00;99.90;;;;;;4878870;29;20214;-72
2021/09/15 03:16:25;;;;;;;22.83;14.43;;;19.00;99.90;;;;;;4874933;29;20201;-72
2021/09/15 03:18:53;;;;;;;20.23;13.67;;;18.90;99.90;;;;;;4870921;29;20258;-72
2021/09/15 03:21:23;;;;;;;17.40;12.60;;;18.90;99.90;;;;;;4862233;29;20717;-72
2021/09/15 03:23:51;;;;;;;18.87;12.90;;;18.90;99.90;;;;;;4878513;29;20290;-72
2021/09/15 03:26:20;;;;;;;19.60;13.13;;;18.90;99.90;;;;;;4876170;29;20219;-72
2021/09/15 03:28:48;;;;;;;14.83;12.13;;;18.80;99.90;;;;;;4872590;29;20198;-72
2021/09/15 03:31:16;;;;;;;21.10;13.87;;;18.80;99.90;;;;;;4871958;29;20219;-72
2021/09/15 03:33:45;;;;;;;19.93;13.10;;;18.80;99.90;;;;;;4877594;29;20254;-72
2021/09/15 03:36:13;;;;;;;21.63;14.33;;;18.80;99.90;;;;;;4880175;29;20845;-72
2021/09/15 03:38:43;;;;;;;20.70;14.27;;;18.80;99.90;;;;;;4878934;29;20250;-72
2021/09/15 03:41:12;;;;;;;20.70;14.23;;;18.80;99.90;;;;;;4875265;29;20242;-72
2021/09/15 03:43:41;;;;;;;25.90;16.30;;;18.80;99.90;;;;;;4874706;29;20287;-72
2021/09/15 03:46:09;;;;;;;21.70;15.07;;;18.70;99.90;;;;;;4883101;29;20206;-72
2021/09/15 03:48:38;;;;;;;27.40;16.93;;;18.70;99.90;;;;;;4876412;29;20237;-72
2021/09/15 03:51:07;;;;;;;26.50;19.10;;;18.70;99.90;;;;;;4888663;29;20202;-72
2021/09/15 03:53:35;;;;;;;28.97;20.57;;;18.70;99.90;;;;;;4871361;29;20218;-72
2021/09/15 03:56:06;;;;;;;27.80;19.40;;;18.70;99.90;;;;;;4874614;29;20609;-71
2021/09/15 03:58:34;;;;;;;31.73;20.27;;;18.70;99.90;;;;;;4870842;29;20207;-71
2021/09/15 04:01:02;;;;;;;28.33;20.47;;;18.70;99.90;;;;;;4870048;29;20584;-71
2021/09/15 04:03:31;;;;;;;29.67;21.00;;;18.70;99.90;;;;;;4876677;29;20210;-71
2021/09/15 04:05:59;;;;;;;28.43;19.20;;;18.70;99.90;;;;;;4879271;29;20259;-71
2021/09/15 04:08:28;;;;;;;31.03;20.77;;;18.70;99.90;;;;;;4883191;29;20233;-71
2021/09/15 04:10:56;;;;;;;28.67;20.53;;;18.80;99.90;;;;;;4873711;29;20203;-71
2021/09/15 04:13:32;;;;;;;33.73;19.63;;;18.80;99.90;;;;;;4866651;29;20215;-71
2021/09/15 04:16:46;;;;;;;34.53;22.10;;;18.80;99.90;;;;;;4872776;29;20598;-71
2021/09/15 04:19:14;;;;;;;32.07;20.67;;;18.80;99.90;;;;;;4872631;29;20213;-71
2021/09/15 04:21:43;;;;;;;32.33;21.90;;;18.80;99.90;;;;;;4883578;29;20629;-71
2021/09/15 04:24:33;;;;;;;41.13;26.40;;;18.80;99.90;;;;;;4882887;29;20194;-71
2021/09/15 04:32:34;;;;;;;47.87;28.47;;;18.70;99.90;;;;;;4875292;29;20203;-71
2021/09/15 04:35:03;;;;;;;43.70;26.83;;;18.70;99.90;;;;;;4874795;29;20195;-71
2021/09/15 04:37:32;;;;;;;45.40;28.20;;;18.70;99.90;;;;;;4874728;29;20222;-71
2021/09/15 04:40:00;;;;;;;45.47;27.97;;;18.80;99.90;;;;;;4875878;29;20194;-71
2021/09/15 04:42:29;;;;;;;49.80;28.90;;;18.80;99.90;;;;;;4875069;29;20567;-71
2021/09/15 04:44:59;;;;;;;49.90;31.03;;;18.70;99.90;;;;;;4872310;29;20698;-71
2021/09/15 04:47:27;;;;;;;57.07;34.10;;;18.80;99.90;;;;;;4873072;29;20634;-71
2021/09/15 04:49:56;;;;;;;58.37;31.63;;;18.70;99.90;;;;;;4870383;29;20211;-71
2021/09/15 04:52:24;;;;;;;55.93;32.90;;;18.70;99.90;;;;;;4870388;29;20199;-71
2021/09/15 04:54:53;;;;;;;61.20;34.00;;;18.70;99.90;;;;;;4872891;29;20246;-71
2021/09/15 04:57:21;;;;;;;58.20;32.03;;;18.70;99.90;;;;;;4874143;29;20202;-72
2021/09/15 04:59:49;;;;;;;60.63;34.37;;;18.70;99.90;;;;;;4872787;29;20242;-71
2021/09/15 05:02:19;;;;;;;61.30;36.73;;;18.60;99.90;;;;;;4865913;29;20234;-71
2021/09/15 05:04:47;;;;;;;65.17;37.50;;;18.60;99.90;;;;;;4874143;29;20312;-71
2021/09/15 05:07:17;;;;;;;68.17;37.97;;;18.70;99.90;;;;;;4868971;29;20231;-71
2021/09/15 05:09:45;;;;;;;77.07;38.90;;;18.60;99.90;;;;;;4870135;29;20282;-71
2021/09/15 05:12:13;;;;;;;78.63;41.07;;;18.60;99.90;;;;;;4870744;29;20689;-71
2021/09/15 05:14:42;;;;;;;85.60;43.93;;;18.60;99.90;;;;;;4869777;29;20702;-71
2021/09/15 05:17:10;;;;;;;87.77;44.47;;;18.60;99.90;;;;;;4868306;29;20571;-72
2021/09/15 05:19:40;;;;;;;91.13;45.70;;;18.50;99.90;;;;;;4869484;29;20749;-73
2021/09/15 05:22:08;;;;;;;83.67;43.07;;;18.50;99.90;;;;;;4869445;29;20694;-72
2021/09/15 05:24:37;;;;;;;90.93;44.43;;;18.50;99.90;;;;;;4867814;29;20206;-72
2021/09/15 05:27:05;;;;;;;89.83;45.47;;;18.50;99.90;;;;;;4869853;29;20670;-72
2021/09/15 05:29:33;;;;;;;90.67;44.53;;;18.50;99.90;;;;;;4868714;29;20547;-72
2021/09/15 05:32:03;;;;;;;92.20;45.10;;;18.50;99.90;;;;;;4869534;29;20232;-72
2021/09/15 05:34:31;;;;;;;100.87;47.67;;;18.40;99.90;;;;;;4869774;29;20318;-72
2021/09/15 05:37:01;;;;;;;98.20;47.83;;;18.40;99.90;;;;;;4869963;29;20202;-73
2021/09/15 05:39:29;;;;;;;105.20;49.23;;;18.40;99.90;;;;;;4868824;29;20234;-72
2021/09/15 05:41:58;;;;;;;106.87;48.80;;;18.40;99.90;;;;;;4873486;29;20230;-71
2021/09/15 05:44:26;;;;;;;104.27;48.27;;;18.40;99.90;;;;;;4868254;29;20195;-72
2021/09/15 05:46:55;;;;;;;106.80;47.63;;;18.40;99.90;;;;;;4877243;29;20234;-72
2021/09/15 05:49:23;;;;;;;103.17;47.27;;;18.40;99.90;;;;;;4870497;29;20263;-71
2021/09/15 05:51:51;;;;;;;105.93;48.40;;;18.40;99.90;;;;;;4871611;29;20239;-72
2021/09/15 05:54:21;;;;;;;107.33;50.47;;;18.40;99.90;;;;;;4869146;29;20211;-72
2021/09/15 05:56:49;;;;;;;117.57;52.10;;;18.40;99.90;;;;;;4857141;29;20285;-72
2021/09/15 05:59:17;;;;;;;120.13;51.20;;;18.40;99.90;;;;;;4870304;29;20282;-72
2021/09/15 06:01:46;;;;;;;117.93;52.17;;;18.40;99.90;;;;;;4865975;29;20621;-72
2021/09/15 06:04:15;;;;;;;117.43;50.40;;;18.40;99.90;;;;;;4873419;29;20198;-72
2021/09/15 06:06:43;;;;;;;115.90;50.90;;;18.40;99.90;;;;;;4867577;29;20234;-72
2021/09/15 06:09:12;;;;;;;121.20;52.00;;;18.40;99.90;;;;;;4879024;29;20289;-73
2021/09/15 06:11:41;;;;;;;112.93;52.27;;;18.40;99.90;;;;;;4883160;29;20255;-72
2021/09/15 06:14:10;;;;;;;110.67;51.47;;;18.30;99.90;;;;;;4859758;29;20214;-73
2021/09/15 06:16:38;;;;;;;122.70;53.30;;;18.30;99.90;;;;;;4875307;29;20250;-73
2021/09/15 06:19:07;;;;;;;113.23;51.03;;;18.30;99.90;;;;;;4885427;29;20270;-73
2021/09/15 06:21:35;;;;;;;109.90;50.87;;;18.30;99.90;;;;;;4868827;29;20741;-72
2021/09/15 06:24:04;;;;;;;110.67;51.13;;;18.30;99.90;;;;;;4885301;29;20246;-72
2021/09/15 06:26:32;;;;;;;116.70;52.07;;;18.30;99.90;;;;;;4870216;29;20198;-72
2021/09/15 06:29:02;;;;;;;116.63;52.43;;;18.30;99.90;;;;;;4888840;29;20654;-72
2021/09/15 06:31:31;;;;;;;116.20;51.87;;;18.20;99.90;;;;;;4884649;29;20207;-73
2021/09/15 06:34:00;;;;;;;111.90;51.20;;;18.20;99.90;;;;;;4877907;29;20222;-73
2021/09/15 06:36:28;;;;;;;117.07;52.73;;;18.20;99.90;;;;;;4868495;29;20238;-73
2021/09/15 06:38:59;;;;;;;117.07;51.83;;;18.30;99.90;;;;;;4874292;29;20518;-73
2021/09/15 06:41:27;;;;;;;116.93;50.93;;;18.30;99.90;;;;;;4859132;29;20705;-72
2021/09/15 06:43:56;;;;;;;104.07;47.23;;;18.30;99.90;;;;;;4874443;29;20203;-73
2021/09/15 06:46:26;;;;;;;118.97;50.33;;;18.30;99.90;;;;;;4874216;29;20286;-72
2021/09/15 06:48:54;;;;;;;111.73;50.53;;;18.30;99.90;;;;;;4879068;29;20540;-72
2021/09/15 06:51:22;;;;;;;112.17;50.07;;;18.30;99.90;;;;;;4876984;29;20278;-72
2021/09/15 06:53:51;;;;;;;117.43;50.60;;;18.30;99.90;;;;;;4872020;29;20203;-72
2021/09/15 06:56:19;;;;;;;112.17;49.73;;;18.30;99.90;;;;;;4879539;29;20201;-73
2021/09/15 06:58:47;;;;;;;108.90;50.07;;;18.30;99.90;;;;;;4872622;29;20207;-72
2021/09/15 07:01:16;;;;;;;109.07;49.87;;;18.40;99.90;;;;;;4874615;29;20222;-72
2021/09/15 07:03:46;;;;;;;113.97;49.73;;;18.40;99.90;;;;;;4873233;29;20199;-72
2021/09/15 07:06:14;;;;;;;110.73;48.40;;;18.50;99.90;;;;;;4876339;29;20199;-73
2021/09/15 07:08:43;;;;;;;102.27;47.90;;;18.60;99.90;;;;;;4875917;29;20195;-72
2021/09/15 07:11:11;;;;;;;102.37;47.80;;;18.60;99.90;;;;;;4872205;29;20738;-73
2021/09/15 07:13:40;;;;;;;103.77;47.23;;;18.60;99.90;;;;;;4870279;29;20199;-72
2021/09/15 07:16:08;;;;;;;100.83;47.63;;;18.70;99.90;;;;;;4868591;29;20309;-72
2021/09/15 07:18:36;;;;;;;96.90;46.53;;;18.70;99.90;;;;;;4872303;29;20195;-72
2021/09/15 07:21:07;;;;;;;95.27;45.50;;;18.70;99.90;;;;;;4879656;29;20209;-72
2021/09/15 07:23:36;;;;;;;86.40;44.03;;;18.70;99.90;;;;;;4852065;29;20199;-72
2021/09/15 07:26:04;;;;;;;83.23;42.27;;;18.70;99.90;;;;;;4874618;29;20187;-72
2021/09/15 07:28:33;;;;;;;80.80;40.77;;;18.70;99.90;;;;;;4872703;29;20615;-72
2021/09/15 07:31:01;;;;;;;90.40;43.50;;;18.70;99.90;;;;;;4869958;29;20239;-73
2021/09/15 07:33:32;;;;;;;93.20;45.10;;;18.70;99.90;;;;;;4872696;29;20270;-72
2021/09/15 07:36:01;;;;;;;84.07;42.07;;;18.80;99.90;;;;;;4875007;29;20267;-72
2021/09/15 07:38:33;;;;;;;84.17;42.47;;;18.80;99.90;;;;;;4877800;29;20261;-72
2021/09/15 07:41:02;;;;;;;82.03;40.97;;;18.70;99.90;;;;;;4874623;29;20602;-72
2021/09/15 07:43:31;;;;;;;81.87;41.43;;;18.70;99.90;;;;;;4871562;29;20202;-72
2021/09/15 07:45:59;;;;;;;75.90;39.20;;;18.70;99.90;;;;;;4871158;29;20778;-73
2021/09/15 07:48:27;;;;;;;78.33;39.60;;;18.70;99.90;;;;;;4875195;29;20258;-72
2021/09/15 07:50:56;;;;;;;81.70;40.93;;;18.80;99.90;;;;;;4879340;29;20262;-72
2021/09/15 07:53:24;;;;;;;82.07;40.37;;;18.80;99.90;;;;;;4871564;29;20199;-72
2021/09/15 07:55:54;;;;;;;75.33;38.97;;;18.80;99.90;;;;;;4857830;29;20218;-72
2021/09/15 07:58:25;;;;;;;73.33;40.00;;;18.80;99.90;;;;;;4878335;29;20410;-72
2021/09/15 08:00:53;;;;;;;77.80;37.67;;;18.80;99.90;;;;;;4854441;29;20202;-73
2021/09/15 08:03:21;;;;;;;74.10;38.80;;;18.70;99.90;;;;;;4872167;29;20195;-72
2021/09/15 08:05:50;;;;;;;73.43;37.93;;;18.70;99.90;;;;;;4872726;29;20472;-72
2021/09/15 08:08:18;;;;;;;72.17;37.67;;;18.70;99.90;;;;;;4877269;29;20447;-73
2021/09/15 08:10:46;;;;;;;67.17;36.43;;;18.70;99.90;;;;;;4871116;29;20206;-71
2021/09/15 08:13:16;;;;;;;68.77;36.13;;;18.70;99.90;;;;;;4868284;29;20243;-72
2021/09/15 08:15:44;;;;;;;62.50;33.13;;;18.60;99.90;;;;;;4855896;29;20250;-72
2021/09/15 08:18:13;;;;;;;58.73;32.13;;;18.70;99.90;;;;;;4869701;29;20222;-72
2021/09/15 08:20:59;;;;;;;47.73;29.07;;;18.70;99.90;;;;;;4872308;29;20203;-73
2021/09/15 08:23:30;;;;;;;49.13;29.00;;;18.70;99.90;;;;;;4869473;29;20195;-72
2021/09/15 08:25:59;;;;;;;40.13;26.53;;;18.70;99.90;;;;;;4866906;29;20233;-72
2021/09/15 08:28:28;;;;;;;40.43;24.43;;;18.70;99.90;;;;;;4871167;29;20636;-72
2021/09/15 08:30:57;;;;;;;37.07;24.53;;;18.70;99.90;;;;;;4865812;29;20245;-72
2021/09/15 08:33:25;;;;;;;33.73;21.67;;;18.70;99.90;;;;;;4874052;29;20187;-72
2021/09/15 08:35:53;;;;;;;30.27;21.70;;;18.70;99.90;;;;;;4875492;29;20472;-72
2021/09/15 08:38:22;;;;;;;31.50;21.00;;;18.80;99.90;;;;;;4873869;29;20190;-73
2021/09/15 08:40:53;;;;;;;27.80;19.50;;;18.80;99.90;;;;;;4852759;29;20601;-72
2021/09/15 08:43:22;;;;;;;22.20;18.00;;;18.70;99.90;;;;;;4858043;29;20709;-72
2021/09/15 08:45:53;;;;;;;24.90;17.67;;;18.70;99.90;;;;;;4851231;29;20255;-72
2021/09/15 08:48:22;;;;;;;20.90;16.90;;;18.70;99.90;;;;;;4855245;29;20204;-72
2021/09/15 08:50:50;;;;;;;20.90;15.97;;;18.70;99.90;;;;;;4850392;29;20727;-72
2021/09/15 08:53:20;;;;;;;19.30;15.00;;;18.70;99.90;;;;;;4852790;29;20361;-72
2021/09/15 08:55:48;;;;;;;22.03;15.17;;;18.70;99.90;;;;;;4854199;29;20258;-72
2021/09/15 08:58:19;;;;;;;20.23;14.80;;;18.70;99.90;;;;;;4851842;29;20268;-72
2021/09/15 09:00:48;;;;;;;20.80;14.23;;;18.70;99.90;;;;;;4851105;29;20242;-72
2021/09/15 09:03:18;;;;;;;22.27;15.27;;;18.70;99.90;;;;;;4853381;29;20660;-72
2021/09/15 09:05:47;;;;;;;20.37;14.40;;;18.70;99.90;;;;;;4852022;29;20687;-72
2021/09/15 09:08:23;;;;;;;21.47;15.40;;;18.70;99.90;;;;;;4853631;29;20198;-72
2021/09/15 09:10:53;;;;;;;19.90;14.63;;;18.70;99.90;;;;;;4848253;29;20199;-72
2021/09/15 09:13:21;;;;;;;17.67;13.13;;;18.70;99.90;;;;;;4853809;29;20222;-72
2021/09/15 09:15:52;;;;;;;17.93;13.23;;;18.70;99.90;;;;;;4853346;29;20295;-72
2021/09/15 09:18:22;;;;;;;18.17;13.70;;;18.80;99.90;;;;;;4854096;29;20243;-72
2021/09/15 09:20:50;;;;;;;17.00;11.73;;;18.80;99.90;;;;;;4853019;29;20196;-72
2021/09/15 09:23:39;;;;;;;17.57;11.07;;;18.90;99.90;;;;;;4852412;29;20203;-72
2021/09/15 09:26:08;;;;;;;12.20;10.50;;;19.00;99.90;;;;;;4859157;29;20565;-72
2021/09/15 09:28:41;;;;;;;12.40;10.33;;;19.10;99.90;;;;;;4851356;29;20224;-73
2021/09/15 09:31:11;;;;;;;11.80;9.70;;;19.10;99.90;;;;;;4850884;29;20734;-73
2021/09/15 09:33:41;;;;;;;9.53;8.27;;;19.20;99.90;;;;;;4849751;29;20205;-72
2021/09/15 09:36:11;;;;;;;10.53;8.10;;;19.20;99.90;;;;;;4855474;29;20452;-72
2021/09/15 09:38:41;;;;;;;8.67;6.90;;;19.30;99.90;;;;;;4851544;29;20211;-72
2021/09/15 09:41:12;;;;;;;7.20;6.17;;;19.30;99.90;;;;;;4864477;29;20322;-72
2021/09/15 09:43:43;;;;;;;9.50;6.67;;;19.20;99.90;;;;;;4876866;29;20266;-71
2021/09/15 09:46:12;;;;;;;10.27;6.60;;;19.20;99.90;;;;;;4869802;29;20218;-72
2021/09/15 09:48:45;;;;;;;7.23;6.53;;;19.30;99.90;;;;;;4873152;29;20293;-72
2021/09/15 09:51:29;;;;;;;6.83;6.20;;;19.40;99.90;;;;;;4873923;29;20311;-72
2021/09/15 09:54:18;;;;;;;7.50;6.23;;;19.50;99.90;;;;;;4874519;29;20690;-72
2021/09/15 09:56:48;;;;;;;8.23;5.83;;;19.50;99.90;;;;;;4866263;29;20215;-72
2021/09/15 09:59:17;;;;;;;9.00;6.00;;;19.60;99.90;;;;;;4890872;29;20291;-72
2021/09/15 10:01:47;;;;;;;7.20;6.47;;;19.70;99.90;;;;;;4883699;29;20202;-72
2021/09/15 10:04:19;;;;;;;7.37;6.00;;;19.70;99.90;;;;;;4886818;29;20566;-72
2021/09/15 10:06:47;;;;;;;6.80;5.77;;;19.80;99.90;;;;;;4888393;29;20233;-72
2021/09/15 10:09:16;;;;;;;5.63;5.13;;;20.00;99.90;;;;;;4876986;29;20274;-72
2021/09/15 10:11:45;;;;;;;7.13;5.73;;;20.20;99.90;;;;;;4874194;29;20199;-72
2021/09/15 10:14:19;;;;;;;9.03;5.70;;;20.30;99.90;;;;;;4877964;29;20233;-72
2021/09/15 10:16:52;;;;;;;8.10;5.27;;;20.30;99.90;;;;;;4878416;29;20534;-72
2021/09/15 10:19:31;;;;;;;10.87;5.67;;;20.40;99.90;;;;;;4871319;29;20226;-72
2021/09/15 10:22:01;;;;;;;6.33;4.77;;;20.30;99.90;;;;;;4881226;29;20722;-72
2021/09/15 10:24:53;;;;;;;6.70;5.80;;;20.40;99.90;;;;;;4876001;29;20206;-72
2021/09/15 10:27:22;;;;;;;5.87;5.37;;;20.40;99.90;;;;;;4878710;29;20241;-72
2021/09/15 10:30:09;;;;;;;9.53;5.63;;;20.30;99.90;;;;;;4874564;29;20258;-72
2021/09/15 10:32:39;;;;;;;7.10;6.17;;;20.20;99.90;;;;;;4868277;29;20947;-73
2021/09/15 10:35:09;;;;;;;8.97;6.73;;;20.10;99.90;;;;;;4878925;29;20219;-72
2021/09/15 10:37:56;;;;;;;10.57;5.83;;;20.00;99.90;;;;;;4869927;29;20715;-72
2021/09/15 10:40:44;;;;;;;13.40;5.90;;;20.00;99.90;;;;;;4878081;29;20321;-72
2021/09/15 10:43:42;;;;;;;7.20;5.77;;;20.10;99.90;;;;;;4872471;29;20207;-72
2021/09/15 10:46:24;;;;;;;6.67;5.93;;;20.30;99.90;;;;;;4874332;29;20221;-72
2021/09/15 10:49:42;;;;;;;8.00;4.90;;;20.40;99.90;;;;;;4859503;29;20234;-72
2021/09/15 10:52:38;;;;;;;5.87;4.83;;;20.70;99.90;;;;;;4872621;29;20206;-73
2021/09/15 10:55:20;;;;;;;6.50;4.63;;;20.80;99.90;;;;;;4867978;29;20207;-72
2021/09/15 10:57:50;;;;;;;5.63;4.33;;;20.80;99.90;;;;;;4873266;29;20741;-72
2021/09/15 11:00:26;;;;;;;4.83;4.33;;;20.80;99.90;;;;;;4873006;29;20243;-72
2021/09/15 11:02:56;;;;;;;7.00;4.40;;;20.70;99.90;;;;;;4869685;29;20649;-72
2021/09/15 11:05:44;;;;;;;5.07;4.60;;;20.50;99.90;;;;;;4875436;29;20746;-72
2021/09/15 11:08:42;;;;;;;4.10;3.80;;;20.50;99.90;;;;;;4875170;29;20195;-72
2021/09/15 11:11:13;;;;;;;3.50;3.20;;;20.50;99.90;;;;;;4837151;29;20271;-72
2021/09/15 11:13:59;;;;;;;4.07;3.23;;;20.50;99.90;;;;;;4873959;29;20626;-72
2021/09/15 11:16:33;;;;;;;4.57;2.90;;;20.50;99.90;;;;;;4868462;29;20686;-72
2021/09/15 11:19:05;;;;;;;4.67;3.20;;;20.50;99.90;;;;;;4872463;29;20267;-72
2021/09/15 11:21:36;;;;;;;4.13;3.17;;;20.50;99.90;;;;;;4857272;29;20547;-72
2021/09/15 11:24:12;;;;;;;3.83;2.60;;;20.60;99.90;;;;;;4871002;29;20235;-72
2021/09/15 11:26:46;;;;;;;2.40;2.20;;;20.60;99.90;;;;;;4871706;29;20411;-72
2021/09/15 11:29:17;;;;;;;3.57;1.93;;;20.60;99.90;;;;;;4869830;29;20259;-72
2021/09/15 11:31:45;;;;;;;7.23;2.30;;;20.60;99.90;;;;;;4873832;29;20230;-72
2021/09/15 11:34:15;;;;;;;6.43;2.00;;;20.40;99.90;;;;;;4870330;29;20195;-71
2021/09/15 11:36:50;;;;;;;2.83;1.93;;;20.40;99.90;;;;;;4852329;29;20310;-72
2021/09/15 11:39:24;;;;;;;4.33;2.00;;;20.30;99.90;;;;;;4877385;29;20222;-72
2021/09/15 11:42:02;;;;;;;2.70;1.40;;;20.40;99.90;;;;;;4871278;29;20743;-72
2021/09/15 11:44:31;;;;;;;3.97;1.70;;;20.50;99.90;;;;;;4872123;29;20718;-72
2021/09/15 11:47:03;;;;;;;1.70;1.57;;;20.50;99.90;;;;;;4871506;29;20197;-72
2021/09/15 11:49:35;;;;;;;4.53;1.37;;;20.70;99.90;;;;;;4872429;29;20227;-68
2021/09/15 11:52:05;;;;;;;3.83;1.80;;;20.80;99.90;;;;;;4869100;29;20207;-75
2021/09/15 11:54:36;;;;;;;5.23;1.43;;;20.70;99.90;;;;;;4855229;29;20226;-74
2021/09/15 11:57:07;;;;;;;8.93;1.83;;;20.70;99.90;;;;;;4871167;29;20322;-74
2021/09/15 11:59:36;;;;;;;2.87;1.80;;;20.80;99.90;;;;;;4871631;29;20206;-72
2021/09/15 12:02:05;;;;;;;3.00;1.50;;;20.90;99.90;;;;;;4870264;29;20294;-73
2021/09/15 12:04:36;;;;;;;4.73;1.40;;;20.90;99.90;;;;;;4870362;29;20233;-73
2021/09/15 12:07:04;;;;;;;2.00;1.30;;;20.80;99.90;;;;;;4872312;29;20195;-73
2021/09/15 12:09:36;;;;;;;2.20;1.50;;;20.80;99.90;;;;;;4871844;29;20211;-73
2021/09/15 12:12:10;;;;;;;1.43;1.33;;;20.80;99.90;;;;;;4872355;29;20210;-73
2021/09/15 12:14:38;;;;;;;4.07;1.60;;;20.70;99.90;;;;;;4870188;29;20286;-72
2021/09/15 12:17:07;;;;;;;3.23;1.33;;;20.70;99.90;;;;;;4871017;29;20571;-73
2021/09/15 12:19:37;;;;;;;5.97;1.60;;;20.70;99.90;;;;;;4869809;29;20631;-72
2021/09/15 12:22:05;;;;;;;3.47;1.67;;;20.80;99.90;;;;;;4863295;29;20326;-73
2021/09/15 12:24:35;;;;;;;2.83;1.50;;;20.80;99.90;;;;;;4875278;29;20202;-73
2021/09/15 12:27:14;;;;;;;5.20;1.67;;;20.80;99.90;;;;;;4872808;29;20322;-73
2021/09/15 12:29:43;;;;;;;3.17;1.50;;;20.90;99.90;;;;;;4873149;29;20271;-75
2021/09/15 12:32:13;;;;;;;2.97;1.30;;;21.00;99.90;;;;;;4870009;29;20239;-69
2021/09/15 12:34:44;;;;;;;3.17;1.40;;;20.90;99.90;;;;;;4873552;29;20195;-68
2021/09/15 12:37:15;;;;;;;3.70;1.40;;;21.00;99.90;;;;;;4868298;29;20222;-79
2021/09/15 12:39:51;;;;;;;4.73;1.43;;;21.10;99.90;;;;;;4866585;29;20202;-77
2021/09/15 12:42:22;;;;;;;4.90;1.33;;;21.10;99.90;;;;;;4865800;29;20752;-72
2021/09/15 12:45:00;;;;;;;8.83;1.70;;;21.10;99.90;;;;;;4868350;29;20230;-72
2021/09/15 12:47:39;;;;;;;3.27;1.40;;;21.10;99.90;;;;;;4867523;29;20666;-72
2021/09/15 12:50:15;;;;;;;1.90;1.10;;;21.20;99.90;;;;;;4869894;29;20389;-73
2021/09/15 12:52:45;;;;;;;3.40;1.40;;;21.30;99.90;;;;;;4869115;29;20284;-72
2021/09/15 12:55:22;;;;;;;3.83;1.43;;;21.40;99.90;;;;;;4869888;29;20198;-72